Time;durP1;ratioP1;P1;durP2;ratioP2;P2;SDS_P1;SDS_P2;PMS_P1;PMS_P2;Temp;Humidity;BMP_temperature;BMP_pressure;BME280_temperature;BME280_humidity;BME280_pressure;Samples;Min_cycle;Max_cycle;Signal;HPM_P1;HPM_P2
2022/07/27 00:00:20;;;;;;;2.70;1.03;;;18.80;83.60;;;;;;5092810;28;20644;-74
2022/07/27 00:02:46;;;;;;;2.93;1.10;;;18.80;83.60;;;;;;5086770;28;20192;-74
2022/07/27 00:05:11;;;;;;;1.77;0.83;;;18.90;83.70;;;;;;5073832;28;20189;-74
2022/07/27 00:07:37;;;;;;;2.37;1.07;;;18.80;83.70;;;;;;5074031;28;20189;-74
2022/07/27 00:10:04;;;;;;;2.37;1.20;;;18.90;83.50;;;;;;5073908;28;20319;-74
2022/07/27 00:12:30;;;;;;;1.60;0.80;;;18.80;83.90;;;;;;5073277;28;20266;-74
2022/07/27 00:14:57;;;;;;;3.10;0.90;;;18.80;84.10;;;;;;5072579;28;20427;-74
2022/07/27 00:17:24;;;;;;;1.80;0.70;;;18.70;85.10;;;;;;5086802;28;20680;-74
2022/07/27 00:19:49;;;;;;;1.73;0.77;;;18.70;84.80;;;;;;5073669;28;20538;-74
2022/07/27 00:22:16;;;;;;;2.60;1.10;;;18.70;84.50;;;;;;5079372;28;20970;-74
2022/07/27 00:24:42;;;;;;;4.27;1.43;;;18.60;84.70;;;;;;5078466;28;20188;-74
2022/07/27 00:27:07;;;;;;;4.13;1.17;;;18.60;85.00;;;;;;5082280;28;20453;-75
2022/07/27 00:29:33;;;;;;;3.00;1.40;;;18.60;85.20;;;;;;5077887;28;20455;-74
2022/07/27 00:31:59;;;;;;;2.97;1.30;;;18.60;85.40;;;;;;5072847;28;20294;-74
2022/07/27 00:34:25;;;;;;;4.07;1.63;;;18.60;85.70;;;;;;5074976;28;20480;-74
2022/07/27 00:36:51;;;;;;;3.10;1.03;;;18.60;85.60;;;;;;5076667;28;20196;-74
2022/07/27 00:39:18;;;;;;;7.33;1.73;;;18.50;86.50;;;;;;5087148;28;20180;-75
2022/07/27 00:41:44;;;;;;;2.63;1.33;;;18.50;86.60;;;;;;5072820;28;20192;-74
2022/07/27 00:44:11;;;;;;;2.53;1.00;;;18.50;86.60;;;;;;5073251;28;20519;-74
2022/07/27 00:46:37;;;;;;;3.30;1.33;;;18.50;86.90;;;;;;5071713;28;20423;-74
2022/07/27 00:49:03;;;;;;;3.27;1.30;;;18.50;87.20;;;;;;5086561;28;20577;-74
2022/07/27 00:51:29;;;;;;;2.90;1.33;;;18.60;86.90;;;;;;5072530;28;20427;-74
2022/07/27 00:53:55;;;;;;;5.63;1.00;;;18.50;86.30;;;;;;5086565;28;20469;-74
2022/07/27 00:56:21;;;;;;;1.80;0.90;;;18.50;86.40;;;;;;5073095;28;20190;-74
2022/07/27 00:58:50;;;;;;;3.10;1.70;;;18.50;86.70;;;;;;5087458;28;20481;-74
2022/07/27 01:01:17;;;;;;;4.10;1.47;;;18.50;86.50;;;;;;5071667;28;20904;-74
2022/07/27 01:03:44;;;;;;;2.10;1.00;;;18.40;86.80;;;;;;5072758;28;20419;-74
2022/07/27 01:06:10;;;;;;;2.57;1.33;;;18.40;86.70;;;;;;5072945;28;20435;-75
2022/07/27 01:08:36;;;;;;;2.53;1.00;;;18.40;86.90;;;;;;5075020;28;20427;-74
2022/07/27 01:11:02;;;;;;;6.63;1.63;;;18.50;86.80;;;;;;5072961;28;20430;-75
2022/07/27 01:13:29;;;;;;;4.30;1.30;;;18.50;86.90;;;;;;5084170;28;20213;-74
2022/07/27 01:15:55;;;;;;;2.50;1.20;;;18.50;87.50;;;;;;5073518;28;20427;-74
2022/07/27 01:18:35;;;;;;;1.70;1.00;;;18.40;87.60;;;;;;5092867;28;20418;-74
2022/07/27 01:21:03;;;;;;;2.83;1.20;;;18.30;87.50;;;;;;5075113;28;20902;-74
2022/07/27 01:23:31;;;;;;;2.37;1.17;;;18.30;87.80;;;;;;5073005;28;20659;-75
2022/07/27 01:25:57;;;;;;;2.37;1.20;;;18.30;88.20;;;;;;5072378;28;20834;-74
2022/07/27 01:28:23;;;;;;;1.73;1.00;;;18.20;88.10;;;;;;5072695;28;20913;-75
2022/07/27 01:30:49;;;;;;;3.17;1.20;;;18.20;89.00;;;;;;5071685;28;20427;-75
2022/07/27 01:33:15;;;;;;;2.60;1.37;;;18.20;88.40;;;;;;5070528;28;20212;-75
2022/07/27 01:35:40;;;;;;;3.57;1.50;;;18.10;89.20;;;;;;5084234;28;20270;-74
2022/07/27 01:38:08;;;;;;;6.97;1.73;;;18.00;89.90;;;;;;5072156;28;20189;-75
2022/07/27 01:40:35;;;;;;;9.20;1.30;;;18.00;89.40;;;;;;5072179;28;20656;-75
2022/07/27 01:43:02;;;;;;;4.33;1.23;;;17.90;90.10;;;;;;5084405;28;20487;-75
2022/07/27 01:45:27;;;;;;;2.30;1.07;;;17.80;90.50;;;;;;5072843;28;20522;-75
2022/07/27 01:47:53;;;;;;;2.67;1.27;;;17.70;90.80;;;;;;5068444;28;20533;-75
2022/07/27 01:50:19;;;;;;;2.17;1.30;;;17.60;90.80;;;;;;5077914;28;20320;-75
2022/07/27 01:52:44;;;;;;;4.03;1.60;;;17.50;91.00;;;;;;5079259;28;20224;-75
2022/07/27 01:55:11;;;;;;;2.33;1.00;;;17.50;90.90;;;;;;5071963;28;20181;-75
2022/07/27 01:57:38;;;;;;;3.87;1.80;;;17.50;91.30;;;;;;5075725;28;20185;-75
2022/07/27 02:00:10;;;;;;;3.13;1.40;;;17.50;90.90;;;;;;5082139;28;20411;-75
2022/07/27 02:02:35;;;;;;;3.70;1.80;;;17.50;90.90;;;;;;5070021;28;20928;-75
2022/07/27 02:05:01;;;;;;;4.43;1.50;;;17.40;91.00;;;;;;5075772;28;20449;-75
2022/07/27 02:07:27;;;;;;;7.10;1.67;;;17.50;91.00;;;;;;5085377;28;20243;-75
2022/07/27 02:09:53;;;;;;;4.10;1.60;;;17.40;91.00;;;;;;5075133;28;20920;-75
2022/07/27 02:12:36;;;;;;;2.60;1.37;;;17.40;90.80;;;;;;5084918;28;20246;-75
2022/07/27 02:15:05;;;;;;;3.80;1.67;;;17.40;91.10;;;;;;5072128;28;20275;-75
2022/07/27 02:17:31;;;;;;;2.40;1.20;;;17.40;91.30;;;;;;5077835;28;20505;-75
2022/07/27 02:19:57;;;;;;;2.47;1.63;;;17.40;91.40;;;;;;5078834;28;20407;-75
2022/07/27 02:22:23;;;;;;;2.77;1.80;;;17.40;91.30;;;;;;5090776;28;20956;-75
2022/07/27 02:24:48;;;;;;;2.57;1.23;;;17.40;91.60;;;;;;5078600;28;20177;-75
2022/07/27 02:27:14;;;;;;;3.80;1.60;;;17.40;91.90;;;;;;5069719;28;20552;-75
2022/07/27 02:29:39;;;;;;;2.83;1.20;;;17.40;92.10;;;;;;5071568;28;20889;-75
2022/07/27 02:32:05;;;;;;;4.00;2.07;;;17.40;92.40;;;;;;5077391;28;20207;-75
2022/07/27 02:34:31;;;;;;;2.60;1.40;;;17.40;92.70;;;;;;5077860;28;20200;-75
2022/07/27 02:36:56;;;;;;;2.80;1.27;;;17.30;92.90;;;;;;5071430;28;20184;-75
2022/07/27 02:39:22;;;;;;;3.07;1.60;;;17.40;93.00;;;;;;5071794;28;20185;-75
2022/07/27 02:41:48;;;;;;;21.53;2.80;;;17.40;92.50;;;;;;5077357;28;20218;-75
2022/07/27 02:44:16;;;;;;;5.30;1.93;;;17.40;92.40;;;;;;5078626;28;20649;-75
2022/07/27 02:46:41;;;;;;;4.30;1.23;;;17.50;91.90;;;;;;5057369;28;20227;-75
2022/07/27 02:49:07;;;;;;;2.80;1.23;;;17.50;92.10;;;;;;5071122;28;20907;-75
2022/07/27 02:51:33;;;;;;;4.20;1.60;;;17.50;91.60;;;;;;5071185;28;20637;-74
2022/07/27 02:53:59;;;;;;;5.33;1.60;;;17.50;91.80;;;;;;5071491;28;20276;-75
2022/07/27 02:56:25;;;;;;;7.17;1.80;;;17.50;91.90;;;;;;5071474;28;20177;-75
2022/07/27 02:58:51;;;;;;;8.70;1.50;;;17.50;91.80;;;;;;5090583;28;20431;-75
2022/07/27 03:01:16;;;;;;;3.00;1.80;;;17.50;91.60;;;;;;5057780;28;20185;-75
2022/07/27 03:03:42;;;;;;;5.43;1.80;;;17.50;91.70;;;;;;5070958;28;20532;-75
2022/07/27 03:06:08;;;;;;;3.20;1.47;;;17.50;92.00;;;;;;5078349;28;20192;-75
2022/07/27 03:08:35;;;;;;;3.50;1.40;;;17.40;91.80;;;;;;5077821;28;20211;-75
2022/07/27 03:11:00;;;;;;;3.70;2.17;;;17.40;92.30;;;;;;5070898;28;20423;-75
2022/07/27 03:13:27;;;;;;;6.23;1.80;;;17.40;92.50;;;;;;5074073;28;21157;-75
2022/07/27 03:15:53;;;;;;;5.40;1.30;;;17.30;92.60;;;;;;5081059;28;20264;-75
2022/07/27 03:18:19;;;;;;;2.53;1.60;;;17.30;92.30;;;;;;5071167;28;20833;-75
2022/07/27 03:20:45;;;;;;;6.63;2.07;;;17.20;92.40;;;;;;5071462;28;20177;-75
2022/07/27 03:23:11;;;;;;;3.70;2.10;;;17.20;92.50;;;;;;5070620;28;20934;-75
2022/07/27 03:25:37;;;;;;;4.27;2.10;;;17.10;92.80;;;;;;5071001;28;20268;-75
2022/07/27 03:28:03;;;;;;;6.33;2.13;;;17.10;92.80;;;;;;5071079;28;20537;-75
2022/07/27 03:30:28;;;;;;;9.63;1.97;;;17.10;93.20;;;;;;5071004;28;20231;-75
2022/07/27 03:32:54;;;;;;;7.97;2.70;;;17.10;93.50;;;;;;5065319;28;20696;-75
2022/07/27 03:35:20;;;;;;;3.40;1.90;;;17.00;93.50;;;;;;5081651;28;20180;-75
2022/07/27 03:37:45;;;;;;;5.63;2.17;;;16.90;93.20;;;;;;5075498;28;20256;-75
2022/07/27 03:40:11;;;;;;;3.33;1.97;;;16.90;93.50;;;;;;5086244;28;20184;-75
2022/07/27 03:42:37;;;;;;;2.80;1.60;;;16.80;93.60;;;;;;5076141;28;20192;-75
2022/07/27 03:45:04;;;;;;;6.10;1.93;;;16.80;93.80;;;;;;5074987;28;20181;-74
2022/07/27 03:47:30;;;;;;;4.40;1.60;;;16.70;93.80;;;;;;5086805;28;20416;-75
2022/07/27 03:49:56;;;;;;;3.13;1.70;;;16.70;94.30;;;;;;5074063;28;20419;-75
2022/07/27 03:52:22;;;;;;;3.30;1.83;;;16.60;94.30;;;;;;5073982;28;20185;-75
2022/07/27 03:54:48;;;;;;;3.87;2.00;;;16.60;94.50;;;;;;5085668;28;20173;-74
2022/07/27 03:57:14;;;;;;;5.90;2.93;;;16.60;94.40;;;;;;5081265;28;20472;-75
2022/07/27 03:59:39;;;;;;;2.90;1.97;;;16.60;94.50;;;;;;5074010;28;20736;-75
2022/07/27 04:02:05;;;;;;;5.90;2.37;;;16.50;94.60;;;;;;5073543;28;20415;-75
2022/07/27 04:04:31;;;;;;;3.77;2.17;;;16.50;94.70;;;;;;5079139;28;20188;-75
2022/07/27 04:06:57;;;;;;;6.33;2.50;;;16.50;95.00;;;;;;5082388;28;20895;-75
2022/07/27 04:09:23;;;;;;;3.03;1.87;;;16.50;95.00;;;;;;5084239;28;20246;-75
2022/07/27 04:11:49;;;;;;;3.20;2.00;;;16.50;95.60;;;;;;5081985;28;20775;-75
2022/07/27 04:14:15;;;;;;;9.07;2.67;;;16.50;95.70;;;;;;5087594;28;20467;-75
2022/07/27 04:16:41;;;;;;;4.00;1.97;;;16.50;95.40;;;;;;5073552;28;20407;-75
2022/07/27 04:19:06;;;;;;;3.30;2.00;;;16.50;95.40;;;;;;5091964;28;20181;-75
2022/07/27 04:21:34;;;;;;;7.93;2.03;;;16.50;95.70;;;;;;5072602;28;20642;-75
2022/07/27 04:24:00;;;;;;;5.60;2.50;;;16.60;95.80;;;;;;5072892;28;20203;-75
2022/07/27 04:26:26;;;;;;;4.03;2.27;;;16.60;95.60;;;;;;5084371;28;20415;-75
2022/07/27 04:28:52;;;;;;;4.40;2.50;;;16.60;95.50;;;;;;5073642;28;20749;-75
2022/07/27 04:31:17;;;;;;;6.33;2.30;;;16.60;95.40;;;;;;5073201;28;20427;-75
2022/07/27 04:33:43;;;;;;;6.10;2.80;;;16.70;95.60;;;;;;5073244;28;20213;-75
2022/07/27 04:36:09;;;;;;;4.17;2.07;;;16.70;95.50;;;;;;5083405;28;20176;-75
2022/07/27 04:38:34;;;;;;;3.60;2.37;;;16.70;95.60;;;;;;5077251;28;20683;-75
2022/07/27 04:41:00;;;;;;;8.90;2.97;;;16.70;95.70;;;;;;5073240;28;20580;-75
2022/07/27 04:43:26;;;;;;;5.17;2.27;;;16.80;95.80;;;;;;5073445;28;20284;-75
2022/07/27 04:45:51;;;;;;;6.27;2.20;;;16.80;95.80;;;;;;5072070;28;20189;-75
2022/07/27 04:48:17;;;;;;;4.27;2.30;;;16.80;95.70;;;;;;5073164;28;20184;-75
2022/07/27 04:50:44;;;;;;;4.10;1.90;;;16.80;95.90;;;;;;5072920;28;20531;-75
2022/07/27 04:53:12;;;;;;;5.50;2.20;;;16.80;96.30;;;;;;5072690;28;20509;-75
2022/07/27 04:55:42;;;;;;;6.40;2.60;;;16.80;96.40;;;;;;5072799;28;20794;-74
2022/07/27 04:58:08;;;;;;;4.13;2.67;;;16.80;96.30;;;;;;5073420;28;20435;-75
2022/07/27 05:00:33;;;;;;;6.13;2.40;;;16.90;96.80;;;;;;5068869;28;20427;-76
2022/07/27 05:02:59;;;;;;;6.70;2.30;;;16.90;96.40;;;;;;5065936;28;20416;-76
2022/07/27 05:05:25;;;;;;;13.10;2.87;;;17.00;96.70;;;;;;5068126;28;20208;-75
2022/07/27 05:07:50;;;;;;;5.07;2.40;;;17.00;96.70;;;;;;5064007;28;20181;-75
2022/07/27 05:10:17;;;;;;;7.23;2.30;;;17.10;96.70;;;;;;5078422;28;20192;-75
2022/07/27 05:12:43;;;;;;;4.60;2.83;;;17.10;96.30;;;;;;5083651;28;20333;-76
2022/07/27 05:15:09;;;;;;;3.60;2.17;;;17.10;96.20;;;;;;5081595;28;20438;-75
2022/07/27 05:17:35;;;;;;;3.83;2.40;;;17.10;96.90;;;;;;5071680;28;21049;-75
2022/07/27 05:20:01;;;;;;;3.83;2.07;;;17.20;97.30;;;;;;5072365;28;20457;-75
2022/07/27 05:22:26;;;;;;;4.03;2.40;;;17.20;96.90;;;;;;5072350;28;20181;-75
2022/07/27 05:24:52;;;;;;;6.43;2.57;;;17.20;97.00;;;;;;5073122;28;20213;-75
2022/07/27 05:27:17;;;;;;;9.17;2.50;;;17.30;97.30;;;;;;5071407;28;20239;-75
2022/07/27 05:29:43;;;;;;;3.70;2.60;;;17.30;96.90;;;;;;5076427;28;20572;-75
2022/07/27 05:32:09;;;;;;;3.97;2.37;;;17.30;97.10;;;;;;5076457;28;20188;-76
2022/07/27 05:34:34;;;;;;;4.97;2.53;;;17.40;96.80;;;;;;5072779;28;20213;-75
2022/07/27 05:37:00;;;;;;;3.53;1.83;;;17.40;96.80;;;;;;5072941;28;20216;-75
2022/07/27 05:39:26;;;;;;;5.03;2.33;;;17.40;96.70;;;;;;5072634;28;20300;-75
2022/07/27 05:41:51;;;;;;;4.17;2.23;;;17.40;96.70;;;;;;5071927;28;20181;-75
2022/07/27 05:44:17;;;;;;;8.60;2.67;;;17.50;97.00;;;;;;5072552;28;20187;-75
2022/07/27 05:46:43;;;;;;;5.83;2.80;;;17.50;96.80;;;;;;5072595;28;20173;-75
2022/07/27 05:49:08;;;;;;;5.53;1.90;;;17.50;96.90;;;;;;5086857;28;20191;-76
2022/07/27 05:51:34;;;;;;;6.20;2.20;;;17.60;96.70;;;;;;5075577;28;20276;-75
2022/07/27 05:54:00;;;;;;;5.03;2.67;;;17.60;96.60;;;;;;5085763;28;20216;-75
2022/07/27 05:56:26;;;;;;;8.33;2.40;;;17.70;96.60;;;;;;5072490;28;20685;-75
2022/07/27 05:58:53;;;;;;;7.87;2.30;;;17.70;96.80;;;;;;5086106;28;20184;-75
2022/07/27 06:01:18;;;;;;;3.70;2.40;;;17.70;96.90;;;;;;5072698;28;20209;-75
2022/07/27 06:03:44;;;;;;;3.67;2.37;;;17.70;96.60;;;;;;5074489;28;20451;-76
2022/07/27 06:08:54;;;;;;;38.87;2.77;;;17.80;96.60;;;;;;5071271;28;20188;-76
2022/07/27 06:11:20;;;;;;;5.70;2.40;;;17.80;96.30;;;;;;5070301;28;20431;-76
2022/07/27 06:13:45;;;;;;;3.53;2.30;;;17.80;96.60;;;;;;5073231;28;20208;-76
2022/07/27 06:16:11;;;;;;;6.20;2.53;;;17.90;96.50;;;;;;5072898;28;20185;-75
2022/07/27 06:18:37;;;;;;;6.53;2.37;;;18.00;96.30;;;;;;5071074;28;20192;-76
2022/07/27 06:21:03;;;;;;;12.30;2.73;;;18.10;96.00;;;;;;5071417;28;20562;-76
2022/07/27 06:23:30;;;;;;;4.40;2.60;;;18.20;95.80;;;;;;5071854;28;21155;-76
2022/07/27 06:25:56;;;;;;;5.00;2.90;;;18.30;95.60;;;;;;5071862;28;20461;-76
2022/07/27 06:28:22;;;;;;;4.30;2.60;;;18.40;95.50;;;;;;5071904;28;20892;-75
2022/07/27 06:30:48;;;;;;;7.50;2.87;;;18.40;94.90;;;;;;5071344;28;20204;-76
2022/07/27 06:33:14;;;;;;;4.30;1.90;;;18.40;95.40;;;;;;5071213;28;20862;-76
2022/07/27 06:35:40;;;;;;;4.93;2.43;;;18.50;94.90;;;;;;5071571;28;20177;-76
2022/07/27 06:38:07;;;;;;;5.93;1.97;;;18.70;94.80;;;;;;5062287;28;20434;-75
2022/07/27 06:40:34;;;;;;;5.93;2.40;;;18.70;94.60;;;;;;5060884;28;20424;-75
2022/07/27 06:42:59;;;;;;;4.40;2.70;;;18.80;94.50;;;;;;5063896;28;20416;-76
2022/07/27 06:45:26;;;;;;;3.63;1.90;;;19.00;94.30;;;;;;5067780;28;20438;-76
2022/07/27 06:47:51;;;;;;;5.37;2.43;;;19.20;93.50;;;;;;5068632;28;20208;-76
2022/07/27 06:50:19;;;;;;;5.90;2.70;;;19.10;93.50;;;;;;5067228;28;20513;-76
2022/07/27 06:52:45;;;;;;;6.67;2.73;;;19.10;93.40;;;;;;5063254;28;20197;-76
2022/07/27 06:55:12;;;;;;;4.73;2.63;;;19.10;93.60;;;;;;5068327;28;20508;-75
2022/07/27 06:57:37;;;;;;;4.10;2.57;;;19.10;93.50;;;;;;5071003;28;20904;-75
2022/07/27 07:00:05;;;;;;;4.03;2.40;;;19.20;93.70;;;;;;5063818;28;20422;-75
2022/07/27 07:02:31;;;;;;;4.83;2.07;;;19.30;93.50;;;;;;5060959;28;20267;-74
2022/07/27 07:04:57;;;;;;;5.70;2.50;;;19.40;93.60;;;;;;5061087;28;20415;-74
2022/07/27 07:07:24;;;;;;;3.17;2.00;;;19.60;93.10;;;;;;5064647;28;20431;-75
2022/07/27 07:09:49;;;;;;;4.10;2.20;;;19.80;92.50;;;;;;5065063;28;20900;-76
2022/07/27 07:12:18;;;;;;;3.00;1.97;;;20.00;92.50;;;;;;5064394;28;20477;-75
2022/07/27 07:14:44;;;;;;;5.70;1.97;;;20.10;92.20;;;;;;5065622;28;20638;-75
2022/07/27 07:17:10;;;;;;;3.03;1.67;;;20.10;92.20;;;;;;5064436;28;20458;-75
2022/07/27 07:19:35;;;;;;;14.37;2.80;;;20.30;91.70;;;;;;5073851;28;20663;-75
2022/07/27 07:22:01;;;;;;;6.73;2.77;;;20.50;90.90;;;;;;5064724;28;20750;-75
2022/07/27 07:24:28;;;;;;;5.40;2.30;;;20.40;91.10;;;;;;5074306;28;20594;-75
2022/07/27 07:26:54;;;;;;;7.93;2.60;;;20.50;91.00;;;;;;5074946;28;20207;-75
2022/07/27 07:29:20;;;;;;;7.40;2.43;;;20.40;91.10;;;;;;5087586;28;20421;-75
2022/07/27 07:31:46;;;;;;;4.33;2.10;;;20.30;91.20;;;;;;5081398;28;20181;-75
2022/07/27 07:34:11;;;;;;;5.80;2.53;;;20.40;91.10;;;;;;5076059;28;20215;-75
2022/07/27 07:36:37;;;;;;;4.70;2.47;;;20.40;91.00;;;;;;5080799;28;20215;-75
2022/07/27 07:39:03;;;;;;;5.40;2.73;;;20.30;91.50;;;;;;5094224;28;20181;-75
2022/07/27 07:41:28;;;;;;;4.50;2.10;;;20.50;91.30;;;;;;5076453;28;20234;-75
2022/07/27 07:43:54;;;;;;;4.30;2.40;;;20.50;91.20;;;;;;5075110;28;20295;-75
2022/07/27 07:46:20;;;;;;;8.77;2.70;;;20.80;91.10;;;;;;5074674;28;20264;-75
2022/07/27 07:48:45;;;;;;;3.70;2.13;;;21.00;90.60;;;;;;5074858;28;20311;-75
2022/07/27 07:51:11;;;;;;;4.70;1.97;;;21.20;90.30;;;;;;5074350;28;20173;-75
2022/07/27 07:53:37;;;;;;;6.10;2.80;;;21.40;90.20;;;;;;5074760;28;20189;-75
2022/07/27 07:56:03;;;;;;;4.37;2.10;;;21.70;89.80;;;;;;5074559;28;20188;-75
2022/07/27 07:58:30;;;;;;;5.83;1.90;;;22.20;87.70;;;;;;5074900;28;20187;-75
2022/07/27 08:00:55;;;;;;;2.90;1.67;;;22.30;85.70;;;;;;5073950;28;20426;-75
2022/07/27 08:03:21;;;;;;;6.33;2.30;;;22.20;86.80;;;;;;5074270;28;20884;-75
2022/07/27 08:05:47;;;;;;;3.60;1.87;;;22.10;86.00;;;;;;5079734;28;20181;-75
2022/07/27 08:08:13;;;;;;;6.20;2.13;;;21.80;87.30;;;;;;5082210;28;20180;-75
2022/07/27 08:10:38;;;;;;;5.00;2.10;;;21.70;87.20;;;;;;5080108;28;20184;-75
2022/07/27 08:13:04;;;;;;;6.50;2.40;;;21.80;87.10;;;;;;5081606;28;20213;-74
2022/07/27 08:15:30;;;;;;;3.17;2.07;;;21.60;88.10;;;;;;5073910;28;20743;-75
2022/07/27 08:17:56;;;;;;;4.30;2.20;;;21.60;87.90;;;;;;5073905;28;20656;-75
2022/07/27 08:20:23;;;;;;;4.40;2.03;;;21.60;88.30;;;;;;5073002;28;20675;-75
2022/07/27 08:22:49;;;;;;;3.90;2.67;;;21.50;88.60;;;;;;5073287;28;20199;-75
2022/07/27 08:25:15;;;;;;;3.83;2.23;;;21.40;89.80;;;;;;5073775;28;20424;-75
2022/07/27 08:27:41;;;;;;;5.40;2.40;;;21.70;87.70;;;;;;5073849;28;20634;-75
2022/07/27 08:30:09;;;;;;;4.47;1.80;;;21.70;88.30;;;;;;5082194;28;20626;-75
2022/07/27 08:32:57;;;;;;;3.50;2.13;;;21.60;89.30;;;;;;5081953;28;20183;-75
2022/07/27 08:35:23;;;;;;;8.70;2.80;;;21.90;88.00;;;;;;5078947;28;20399;-75
2022/07/27 08:37:49;;;;;;;3.77;2.10;;;22.20;87.00;;;;;;5080165;28;20878;-75
2022/07/27 08:40:16;;;;;;;3.60;2.30;;;22.30;87.30;;;;;;5079013;28;20459;-75
2022/07/27 08:42:42;;;;;;;5.37;2.50;;;22.50;86.90;;;;;;5081013;28;20418;-75
2022/07/27 08:45:11;;;;;;;3.20;2.00;;;22.50;86.20;;;;;;5081274;28;20411;-75
2022/07/27 08:47:39;;;;;;;5.50;2.47;;;22.70;84.10;;;;;;5078078;28;20786;-76
2022/07/27 08:50:22;;;;;;;5.57;3.57;;;22.50;85.30;;;;;;5077161;28;20810;-75
2022/07/27 08:53:03;;;;;;;3.80;2.07;;;22.50;85.80;;;;;;5071992;28;20473;-77
2022/07/27 08:55:35;;;;;;;7.50;2.33;;;22.90;84.40;;;;;;5073118;28;20411;-77
2022/07/27 08:58:01;;;;;;;6.43;2.67;;;23.10;82.90;;;;;;5073024;28;21076;-77
2022/07/27 09:00:28;;;;;;;4.40;1.97;;;23.50;82.00;;;;;;5072761;28;20419;-77
2022/07/27 09:02:54;;;;;;;3.90;2.40;;;24.00;79.80;;;;;;5073195;28;20423;-78
2022/07/27 09:05:20;;;;;;;5.20;2.30;;;24.60;78.90;;;;;;5074428;28;20446;-78
2022/07/27 09:07:46;;;;;;;7.67;2.33;;;24.90;77.50;;;;;;5087091;28;20445;-78
2022/07/27 09:10:31;;;;;;;4.93;2.57;;;25.00;78.40;;;;;;5077604;28;20422;-78
2022/07/27 09:12:57;;;;;;;6.00;2.53;;;24.80;78.60;;;;;;5072704;28;20508;-78
2022/07/27 09:15:23;;;;;;;6.13;2.20;;;25.00;77.60;;;;;;5072712;28;20212;-78
2022/07/27 09:17:49;;;;;;;3.40;1.97;;;25.20;77.40;;;;;;5073080;28;20215;-78
2022/07/27 09:20:17;;;;;;;2.97;1.87;;;25.70;75.30;;;;;;5071906;28;20672;-77
2022/07/27 09:22:49;;;;;;;6.13;2.10;;;25.20;76.30;;;;;;5072605;28;20192;-77
2022/07/27 09:25:19;;;;;;;3.83;2.13;;;25.30;77.40;;;;;;5086407;28;20211;-78
2022/07/27 09:27:47;;;;;;;3.80;1.93;;;25.30;76.20;;;;;;5072931;28;20188;-78
2022/07/27 09:30:18;;;;;;;4.70;2.63;;;25.20;76.10;;;;;;5072446;28;20952;-78
2022/07/27 09:32:56;;;;;;;7.90;2.63;;;25.20;76.90;;;;;;5078792;28;20528;-78
2022/07/27 09:35:30;;;;;;;11.17;2.20;;;24.60;78.10;;;;;;5080165;28;20449;-77
2022/07/27 09:38:15;;;;;;;7.03;3.37;;;24.60;77.40;;;;;;5076240;28;20802;-77
2022/07/27 09:40:41;;;;;;;3.60;1.97;;;24.40;77.60;;;;;;5068565;28;20472;-77
2022/07/27 09:43:12;;;;;;;3.10;1.97;;;24.20;79.20;;;;;;5086271;28;20786;-77
2022/07/27 09:45:42;;;;;;;4.63;2.43;;;24.10;79.20;;;;;;5072070;28;20185;-77
2022/07/27 09:48:12;;;;;;;9.13;2.60;;;24.40;78.00;;;;;;5072659;28;20414;-77
2022/07/27 09:50:59;;;;;;;4.53;2.20;;;24.00;78.70;;;;;;5072553;28;20519;-78
2022/07/27 09:53:27;;;;;;;3.43;2.17;;;24.10;79.40;;;;;;5080488;28;20466;-79
2022/07/27 09:56:12;;;;;;;3.60;2.20;;;24.70;78.40;;;;;;5071962;28;20423;-76
2022/07/27 09:58:50;;;;;;;4.23;2.27;;;25.20;76.30;;;;;;5072329;28;20460;-77
2022/07/27 10:01:27;;;;;;;5.17;2.63;;;25.80;74.40;;;;;;5071910;28;20424;-77
2022/07/27 10:03:55;;;;;;;7.47;2.70;;;25.40;74.20;;;;;;5072409;28;20414;-76
2022/07/27 10:06:22;;;;;;;5.60;2.83;;;25.60;74.50;;;;;;5080752;28;20923;-77
2022/07/27 10:08:49;;;;;;;5.47;2.70;;;25.50;75.30;;;;;;5077528;28;20421;-77
2022/07/27 10:11:16;;;;;;;4.83;2.30;;;25.30;75.50;;;;;;5072121;28;20476;-76
2022/07/27 10:13:42;;;;;;;3.33;1.77;;;24.70;78.20;;;;;;5072138;28;20462;-77
2022/07/27 10:16:35;;;;;;;12.80;2.47;;;24.60;77.50;;;;;;5072846;28;20415;-76
2022/07/27 10:19:37;;;;;;;6.63;2.47;;;24.50;77.90;;;;;;5071563;28;20498;-75
2022/07/27 10:22:03;;;;;;;4.97;2.57;;;24.20;79.10;;;;;;5085996;28;20435;-75
2022/07/27 10:24:36;;;;;;;9.00;2.90;;;24.60;77.60;;;;;;5073228;28;20436;-75
2022/07/27 10:27:26;;;;;;;5.73;3.50;;;24.50;78.10;;;;;;5067231;28;20183;-75
2022/07/27 10:29:54;;;;;;;6.73;2.80;;;24.60;77.70;;;;;;5072977;28;20446;-75
2022/07/27 10:32:33;;;;;;;3.47;2.20;;;24.50;77.90;;;;;;5072665;28;20418;-75
2022/07/27 10:35:01;;;;;;;8.80;2.73;;;24.40;79.40;;;;;;5086497;28;20820;-76
2022/07/27 10:37:27;;;;;;;7.00;2.40;;;24.20;77.90;;;;;;5085614;28;20402;-75
2022/07/27 10:42:41;;;;;;;3.97;2.60;;;24.40;78.20;;;;;;5086386;28;20191;-75
2022/07/27 10:45:11;;;;;;;6.17;2.43;;;24.60;75.50;;;;;;5073139;28;20396;-75
2022/07/27 10:47:47;;;;;;;5.70;2.70;;;24.60;75.00;;;;;;5076785;28;20430;-75
2022/07/27 10:50:15;;;;;;;8.60;2.87;;;24.70;74.30;;;;;;5076330;28;20448;-75
2022/07/27 10:52:57;;;;;;;3.80;2.67;;;24.60;74.10;;;;;;5081087;28;20401;-75
2022/07/27 10:55:32;;;;;;;4.57;1.53;;;24.60;76.30;;;;;;5083477;28;20514;-75
2022/07/27 10:58:13;;;;;;;12.43;2.47;;;24.80;76.50;;;;;;5072447;28;20409;-75
2022/07/27 11:00:48;;;;;;;3.70;2.30;;;25.10;78.40;;;;;;5068424;28;20422;-75
2022/07/27 11:03:23;;;;;;;2.70;1.57;;;25.50;75.20;;;;;;5076559;28;20765;-75
2022/07/27 11:06:09;;;;;;;3.10;1.50;;;25.80;73.20;;;;;;5076098;28;20763;-75
2022/07/27 11:08:40;;;;;;;4.60;1.73;;;25.60;71.40;;;;;;5090033;28;20445;-75
2022/07/27 11:11:08;;;;;;;5.47;2.47;;;25.30;72.90;;;;;;5085871;28;20413;-76
2022/07/27 11:13:34;;;;;;;4.73;1.80;;;25.10;71.50;;;;;;5080155;28;20548;-76
2022/07/27 11:16:01;;;;;;;5.70;2.23;;;25.00;71.70;;;;;;5076097;28;20887;-75
2022/07/27 11:18:29;;;;;;;4.20;1.50;;;24.70;73.70;;;;;;5075606;28;20430;-75
2022/07/27 11:21:17;;;;;;;4.87;1.60;;;24.70;71.70;;;;;;5085411;28;20467;-75
2022/07/27 11:23:44;;;;;;;3.23;1.70;;;24.40;72.60;;;;;;5082619;28;20410;-75
2022/07/27 11:26:10;;;;;;;4.20;1.80;;;24.30;73.80;;;;;;5083453;28;20941;-75
2022/07/27 11:28:36;;;;;;;3.50;1.70;;;24.30;74.40;;;;;;5075165;28;20423;-76
2022/07/27 11:31:04;;;;;;;4.97;1.90;;;24.40;74.40;;;;;;5074092;28;20246;-76
2022/07/27 11:33:30;;;;;;;3.77;1.73;;;24.70;72.20;;;;;;5078083;28;20466;-76
2022/07/27 11:36:02;;;;;;;4.10;1.60;;;25.30;72.10;;;;;;5074437;28;20418;-77
2022/07/27 11:38:28;;;;;;;3.20;1.77;;;25.90;69.50;;;;;;5076734;28;20537;-76
2022/07/27 11:40:54;;;;;;;2.37;1.50;;;25.90;67.90;;;;;;5081412;28;20908;-76
2022/07/27 11:43:36;;;;;;;16.10;1.60;;;25.50;70.60;;;;;;5085413;28;20652;-76
2022/07/27 11:46:14;;;;;;;2.30;1.40;;;25.10;68.30;;;;;;5078317;28;20428;-76
2022/07/27 11:49:06;;;;;;;2.23;1.20;;;24.90;68.60;;;;;;5074583;28;20414;-76
2022/07/27 11:51:41;;;;;;;3.50;1.57;;;24.60;70.30;;;;;;5062337;28;20422;-76
2022/07/27 11:54:10;;;;;;;7.03;2.00;;;24.40;73.90;;;;;;5077256;28;20961;-76
2022/07/27 11:56:38;;;;;;;2.90;1.40;;;24.60;70.70;;;;;;5083807;28;20964;-76
2022/07/27 11:59:15;;;;;;;3.10;1.50;;;25.00;68.80;;;;;;5074065;28;20415;-76
2022/07/27 12:01:45;;;;;;;2.40;1.47;;;25.20;71.00;;;;;;5069694;28;20448;-76
2022/07/27 12:04:20;;;;;;;3.30;1.73;;;25.40;69.40;;;;;;5070701;28;20422;-76
2022/07/27 12:07:13;;;;;;;3.00;1.60;;;25.60;68.60;;;;;;5072378;28;20426;-76
2022/07/27 12:09:42;;;;;;;2.97;1.63;;;25.50;68.90;;;;;;5072312;28;20899;-76
2022/07/27 12:12:15;;;;;;;2.50;1.23;;;25.40;70.80;;;;;;5071989;28;20439;-76
2022/07/27 12:14:53;;;;;;;4.40;1.63;;;25.80;67.50;;;;;;5072346;28;20498;-76
2022/07/27 12:17:39;;;;;;;3.67;1.83;;;25.60;68.20;;;;;;5071975;28;20418;-75
2022/07/27 12:20:09;;;;;;;6.00;1.40;;;25.40;67.00;;;;;;5068881;28;20916;-76
2022/07/27 12:22:39;;;;;;;2.63;1.47;;;25.20;66.70;;;;;;5071909;28;20882;-76
2022/07/27 12:25:28;;;;;;;2.80;1.67;;;24.80;68.60;;;;;;5072349;28;20418;-76
2022/07/27 12:28:06;;;;;;;2.73;1.67;;;24.50;68.60;;;;;;5072358;28;20454;-76
2022/07/27 12:30:39;;;;;;;2.20;1.30;;;24.50;70.30;;;;;;5072110;28;20414;-76
2022/07/27 12:33:25;;;;;;;7.57;1.30;;;24.40;69.20;;;;;;5071525;28;20517;-76
2022/07/27 12:35:51;;;;;;;2.20;1.30;;;24.20;72.40;;;;;;5071963;28;20419;-75
2022/07/27 12:38:17;;;;;;;4.47;1.50;;;24.20;72.60;;;;;;5072093;28;20746;-75
2022/07/27 12:40:48;;;;;;;3.00;1.57;;;24.30;70.40;;;;;;5071883;28;20231;-76
2022/07/27 12:43:19;;;;;;;3.30;1.53;;;24.30;72.00;;;;;;5078216;28;20414;-76
2022/07/27 12:45:47;;;;;;;2.30;1.17;;;24.30;70.10;;;;;;5077344;28;20513;-75
2022/07/27 12:48:15;;;;;;;3.17;1.57;;;24.70;70.00;;;;;;5072111;28;20915;-75
2022/07/27 12:50:42;;;;;;;2.73;1.83;;;25.10;69.90;;;;;;5068690;28;20454;-75
2022/07/27 12:53:09;;;;;;;7.37;1.60;;;25.10;69.80;;;;;;5072478;28;20450;-75
2022/07/27 12:55:35;;;;;;;5.67;1.63;;;25.00;68.80;;;;;;5071289;28;20754;-75